createdAt,value
2019-04-29T00:00:51.325Z,13.33
2019-04-29T00:03:21.983Z,13.27
2019-04-29T00:05:51.927Z,13.67
2019-04-29T00:08:21.767Z,15.50
2019-04-29T00:10:51.727Z,14.67
2019-04-29T00:13:21.483Z,13.53
2019-04-29T00:15:52.790Z,14.93
2019-04-29T00:18:29.925Z,13.97
2019-04-29T00:20:59.675Z,15.33
2019-04-29T00:23:29.419Z,11.40
2019-04-29T00:25:59.166Z,11.33
2019-04-29T00:28:28.932Z,12.67
2019-04-29T00:30:58.795Z,12.27
2019-04-29T00:33:28.530Z,10.83
2019-04-29T00:35:58.283Z,12.13
2019-04-29T00:38:35.776Z,13.77
2019-04-29T00:41:09.690Z,14.33
2019-04-29T00:43:53.278Z,14.23
2019-04-29T00:46:23.028Z,11.80
2019-04-29T00:48:52.759Z,11.33
2019-04-29T00:51:23.364Z,11.93
2019-04-29T00:53:55.781Z,11.53
2019-04-29T00:56:25.546Z,11.60
2019-04-29T00:58:55.276Z,11.90
2019-04-29T01:01:26.223Z,11.23
2019-04-29T01:03:55.946Z,13.20
2019-04-29T01:06:25.676Z,10.33
2019-04-29T01:08:55.471Z,10.13
2019-04-29T01:11:25.308Z,10.43
2019-04-29T01:13:55.059Z,9.50
2019-04-29T01:16:24.797Z,8.30
2019-04-29T01:18:54.517Z,9.77
2019-04-29T01:21:24.279Z,9.37
2019-04-29T01:23:54.010Z,11.30
2019-04-29T01:26:41.152Z,8.50
2019-04-29T01:29:12.626Z,9.40
2019-04-29T01:31:42.380Z,9.13
2019-04-29T01:34:22.875Z,8.57
2019-04-29T01:36:52.639Z,9.30
2019-04-29T01:39:24.050Z,9.77
2019-04-29T01:41:56.204Z,9.13
2019-04-29T01:44:27.513Z,9.77
2019-04-29T01:46:57.288Z,10.97
2019-04-29T01:49:27.030Z,11.60
2019-04-29T01:51:56.783Z,11.27
2019-04-29T01:54:26.539Z,11.80
2019-04-29T01:56:56.266Z,12.63
2019-04-29T01:59:26.073Z,14.30
2019-04-29T02:01:55.802Z,15.30
2019-04-29T02:04:25.546Z,15.73
2019-04-29T02:06:55.302Z,13.77
2019-04-29T02:09:36.869Z,13.93
2019-04-29T02:12:07.648Z,13.10
2019-04-29T02:14:37.678Z,13.37
2019-04-29T02:17:07.440Z,14.80
2019-04-29T02:19:37.191Z,15.23
2019-04-29T02:22:08.501Z,15.60
2019-04-29T02:24:39.905Z,14.53
2019-04-29T02:27:09.653Z,16.13
2019-04-29T02:29:39.405Z,16.27
2019-04-29T02:32:09.133Z,17.20
2019-04-29T02:34:38.891Z,18.50
2019-04-29T02:37:10.249Z,18.97
2019-04-29T02:39:47.809Z,18.83
2019-04-29T02:42:35.591Z,23.80
2019-04-29T02:45:08.416Z,19.57
2019-04-29T02:47:38.138Z,22.37
2019-04-29T02:50:09.126Z,21.83
2019-04-29T02:52:38.868Z,21.17
2019-04-29T02:55:10.524Z,22.87
2019-04-29T02:57:48.025Z,20.10
2019-04-29T03:00:25.408Z,24.80
2019-04-29T03:03:05.537Z,21.07
2019-04-29T03:05:39.882Z,23.97
2019-04-29T03:08:08.257Z,25.87
2019-04-29T03:10:38.008Z,26.47
2019-04-29T03:13:08.754Z,26.30
2019-04-29T03:15:41.445Z,23.17
2019-04-29T03:18:11.339Z,27.20
2019-04-29T03:20:45.327Z,26.97
2019-04-29T03:23:19.471Z,26.87
2019-04-29T03:25:49.201Z,29.60
2019-04-29T03:28:18.966Z,22.40
2019-04-29T03:30:48.735Z,28.83
2019-04-29T03:33:18.478Z,26.80
2019-04-29T03:35:48.261Z,25.73
2019-04-29T03:38:17.980Z,29.37
2019-04-29T03:40:47.788Z,30.27
2019-04-29T03:43:17.566Z,26.20
2019-04-29T03:45:48.390Z,27.17
2019-04-29T03:48:18.179Z,30.27
2019-04-29T03:50:47.921Z,28.30
2019-04-29T03:53:17.749Z,26.27
2019-04-29T03:55:47.518Z,24.27
2019-04-29T03:58:17.254Z,25.73
2019-04-29T04:00:48.613Z,24.80
2019-04-29T04:03:35.225Z,26.53
2019-04-29T04:06:09.583Z,25.17
2019-04-29T04:09:04.304Z,22.60
2019-04-29T04:11:18.567Z,20.77
2019-04-29T04:13:48.307Z,19.07
2019-04-29T04:16:30.331Z,21.57
2019-04-29T04:19:07.228Z,20.17
2019-04-29T04:21:36.997Z,19.93
2019-04-29T04:24:06.745Z,18.87
2019-04-29T04:26:36.490Z,18.00
2019-04-29T04:29:06.240Z,20.17
2019-04-29T04:31:37.011Z,15.77
2019-04-29T04:34:06.803Z,18.17
2019-04-29T04:36:36.541Z,17.10
2019-04-29T04:39:07.920Z,17.60
2019-04-29T04:41:39.477Z,19.50
2019-04-29T04:44:09.281Z,19.87
2019-04-29T04:46:40.122Z,23.07
2019-04-29T04:49:09.872Z,22.83
2019-04-29T04:51:39.627Z,21.50
2019-04-29T04:54:09.375Z,19.83
2019-04-29T04:56:39.135Z,20.57
2019-04-29T04:59:08.878Z,20.37
2019-04-29T05:01:38.642Z,19.73
2019-04-29T05:04:08.383Z,23.53
2019-04-29T05:06:38.146Z,20.17
2019-04-29T05:09:08.405Z,17.10
2019-04-29T05:11:38.135Z,18.83
2019-04-29T05:14:07.920Z,16.97
2019-04-29T05:16:37.674Z,18.97
2019-04-29T05:19:07.409Z,15.03
2019-04-29T05:21:38.174Z,15.83
2019-04-29T05:24:07.935Z,14.00
2019-04-29T05:26:37.673Z,17.17
2019-04-29T05:29:07.483Z,16.00
2019-04-29T05:31:37.189Z,12.67
2019-04-29T05:34:06.902Z,10.70
2019-04-29T05:36:43.955Z,12.03
2019-04-29T05:39:15.288Z,12.63
2019-04-29T05:41:45.137Z,12.07
2019-04-29T05:44:19.238Z,15.10
2019-04-29T05:46:53.492Z,17.47
2019-04-29T05:49:24.830Z,14.93
2019-04-29T05:51:57.489Z,11.07
2019-04-29T05:54:31.648Z,11.70
2019-04-29T05:57:00.073Z,10.23
2019-04-29T05:59:29.920Z,8.97
2019-04-29T06:01:59.688Z,11.80
2019-04-29T06:04:30.423Z,9.67
2019-04-29T06:07:00.163Z,11.80
2019-04-29T06:09:29.947Z,10.23
2019-04-29T06:11:59.820Z,8.00
2019-04-29T06:14:29.573Z,8.30
2019-04-29T06:17:02.825Z,7.33
2019-04-29T06:19:30.659Z,7.67
2019-04-29T06:22:00.419Z,9.10
2019-04-29T06:24:30.158Z,5.67
2019-04-29T06:27:00.915Z,6.00
2019-04-29T06:29:30.652Z,6.63
2019-04-29T06:32:03.436Z,7.60
2019-04-29T06:34:35.499Z,4.20
2019-04-29T06:37:04.561Z,5.43
2019-04-29T06:39:34.262Z,5.70
2019-04-29T06:42:04.037Z,5.53
2019-04-29T06:44:34.707Z,4.53
2019-04-29T06:47:04.634Z,5.17
2019-04-29T06:49:34.393Z,5.00
2019-04-29T06:52:04.177Z,3.73
2019-04-29T06:54:33.927Z,4.53
2019-04-29T06:57:03.665Z,3.97
2019-04-29T06:59:33.417Z,4.67
2019-04-29T07:02:03.162Z,4.37
2019-04-29T07:04:38.498Z,7.20
2019-04-29T07:07:04.283Z,2.90
2019-04-29T07:09:34.034Z,3.23
2019-04-29T07:12:08.012Z,3.77
2019-04-29T07:14:38.494Z,4.00
2019-04-29T07:17:07.255Z,5.73
2019-04-29T07:19:36.965Z,8.23
2019-04-29T07:22:06.717Z,7.60
2019-04-29T07:24:36.485Z,6.50
2019-04-29T07:27:06.239Z,5.13
2019-04-29T07:29:38.085Z,6.83
2019-04-29T07:32:09.406Z,5.30
2019-04-29T07:34:39.545Z,6.03
2019-04-29T07:37:09.564Z,5.30
2019-04-29T07:39:40.298Z,7.20
2019-04-29T07:42:10.069Z,6.23
2019-04-29T07:44:48.973Z,7.97
2019-04-29T07:47:19.914Z,4.60
2019-04-29T07:49:51.524Z,4.53
2019-04-29T07:52:21.042Z,6.03
2019-04-29T07:54:55.067Z,4.47
2019-04-29T07:57:22.193Z,5.17
2019-04-29T07:59:51.935Z,8.47
2019-04-29T08:02:21.689Z,7.07
2019-04-29T08:04:51.441Z,6.20
2019-04-29T08:07:21.499Z,5.40
2019-04-29T08:09:52.297Z,5.60
2019-04-29T08:12:23.098Z,5.03
2019-04-29T08:14:58.638Z,6.07
2019-04-29T08:17:25.536Z,5.33
2019-04-29T08:19:56.445Z,9.07
2019-04-29T08:22:27.813Z,4.03
2019-04-29T08:25:00.405Z,5.37
2019-04-29T08:27:39.795Z,6.93
2019-04-29T08:30:01.551Z,6.00
2019-04-29T08:32:36.342Z,7.17
2019-04-29T08:35:07.480Z,10.03
2019-04-29T08:37:37.204Z,10.43
2019-04-29T08:40:16.014Z,8.63
2019-04-29T08:42:41.863Z,7.80
2019-04-29T08:45:28.698Z,9.20
2019-04-29T08:47:59.762Z,6.63
2019-04-29T08:50:48.767Z,6.50
2019-04-29T08:53:18.577Z,7.27
2019-04-29T08:55:48.454Z,7.30
2019-04-29T08:58:18.212Z,10.90
2019-04-29T09:00:51.285Z,6.63
2019-04-29T09:03:23.461Z,7.20
2019-04-29T09:06:04.445Z,7.50
2019-04-29T09:08:22.148Z,7.37
2019-04-29T09:10:51.912Z,6.80
2019-04-29T09:13:21.660Z,10.03
2019-04-29T09:15:52.285Z,6.87
2019-04-29T09:18:22.016Z,11.20
2019-04-29T09:20:51.756Z,7.03
2019-04-29T09:23:23.093Z,8.83
2019-04-29T09:26:02.707Z,9.13
2019-04-29T09:28:32.085Z,7.80
2019-04-29T09:31:01.805Z,8.70
2019-04-29T09:33:31.684Z,7.97
2019-04-29T09:36:01.431Z,7.27
2019-04-29T09:38:32.520Z,6.57
2019-04-29T09:41:06.924Z,9.40
2019-04-29T09:43:41.169Z,7.67
2019-04-29T09:46:19.524Z,10.83
2019-04-29T09:48:49.259Z,10.53
2019-04-29T09:51:22.643Z,7.60
2019-04-29T09:53:50.376Z,8.70
2019-04-29T09:56:20.168Z,9.37
2019-04-29T09:58:51.468Z,14.23
2019-04-29T10:01:29.019Z,9.70
2019-04-29T10:04:06.123Z,15.37
2019-04-29T10:06:37.542Z,12.40
2019-04-29T10:09:09.315Z,14.03
2019-04-29T10:11:39.792Z,14.33
2019-04-29T10:14:09.542Z,17.27
2019-04-29T10:16:53.026Z,11.00
2019-04-29T10:19:30.364Z,15.27
2019-04-29T10:22:00.131Z,13.67
2019-04-29T10:24:29.887Z,14.23
2019-04-29T10:26:59.628Z,12.70
2019-04-29T10:29:30.945Z,14.87
2019-04-29T10:32:02.561Z,14.97
2019-04-29T10:34:33.069Z,21.77
2019-04-29T10:37:04.074Z,13.50
2019-04-29T10:39:47.685Z,14.63
2019-04-29T10:42:34.232Z,15.83
2019-04-29T10:45:13.856Z,16.37
2019-04-29T10:47:47.896Z,19.20
2019-04-29T10:50:23.562Z,19.17
2019-04-29T10:52:51.846Z,17.60
2019-04-29T10:55:25.643Z,18.40
2019-04-29T10:57:54.068Z,18.37
2019-04-29T11:00:43.211Z,16.47
2019-04-29T11:03:13.155Z,17.17
2019-04-29T11:05:59.833Z,18.93
2019-04-29T11:08:18.120Z,17.37
2019-04-29T11:10:47.912Z,18.83
2019-04-29T11:13:17.842Z,23.43
2019-04-29T11:15:49.402Z,18.30
2019-04-29T11:18:23.206Z,18.33
2019-04-29T11:20:53.681Z,19.23
2019-04-29T11:23:26.620Z,24.17
2019-04-29T11:25:57.934Z,28.50
2019-04-29T11:28:28.092Z,26.03
2019-04-29T11:30:58.246Z,30.73
2019-04-29T11:33:39.889Z,30.57
2019-04-29T11:36:14.887Z,28.77
2019-04-29T11:38:44.633Z,27.67
2019-04-29T11:41:19.748Z,29.57
2019-04-29T11:43:46.748Z,28.63
2019-04-29T11:46:20.792Z,30.47
2019-04-29T11:48:50.652Z,35.43
2019-04-29T11:51:28.048Z,34.73
2019-04-29T11:53:57.945Z,41.57
2019-04-29T11:56:27.806Z,44.40
2019-04-29T11:58:59.180Z,48.53
2019-04-29T12:01:47.147Z,47.13
2019-04-29T12:04:19.111Z,45.00
2019-04-29T12:06:51.154Z,48.13
2019-04-29T12:09:25.495Z,48.13
2019-04-29T12:11:52.632Z,46.87
2019-04-29T12:14:27.087Z,46.97
2019-04-29T12:16:58.434Z,46.67
2019-04-29T12:19:35.603Z,40.73
2019-04-29T12:22:08.892Z,48.40
2019-04-29T12:24:36.711Z,52.60
2019-04-29T12:27:07.014Z,49.67
2019-04-29T12:29:36.777Z,39.83
2019-04-29T12:32:09.237Z,42.53
2019-04-29T12:34:40.553Z,46.10
2019-04-29T12:37:14.850Z,41.03
2019-04-29T12:39:52.186Z,43.87
2019-04-29T12:42:40.546Z,43.13
2019-04-29T12:45:24.571Z,52.57
2019-04-29T12:47:54.639Z,50.87
2019-04-29T12:50:24.394Z,52.43
2019-04-29T12:52:54.183Z,47.00
2019-04-29T12:55:43.567Z,43.53
2019-04-29T12:57:56.929Z,42.40
2019-04-29T13:00:47.406Z,38.53
2019-04-29T13:03:30.880Z,58.43
2019-04-29T13:06:10.293Z,63.20
2019-04-29T13:08:56.739Z,38.03
2019-04-29T13:11:37.445Z,47.50
2019-04-29T13:14:01.833Z,66.23
2019-04-29T13:16:32.840Z,51.13
2019-04-29T13:19:12.515Z,47.07
2019-04-29T13:21:39.563Z,42.80
2019-04-29T13:24:21.454Z,36.70
2019-04-29T13:26:42.993Z,66.47
2019-04-29T13:29:26.283Z,44.20
2019-04-29T13:31:43.844Z,66.53
2019-04-29T13:34:24.344Z,48.63
2019-04-29T13:36:57.438Z,36.80
2019-04-29T13:39:18.080Z,35.20
2019-04-29T13:41:56.950Z,35.60
2019-04-29T13:44:19.774Z,31.97
2019-04-29T13:46:54.407Z,33.13
2019-04-29T13:49:28.753Z,36.37
2019-04-29T13:52:00.083Z,41.20
2019-04-29T13:54:29.871Z,39.80
2019-04-29T13:57:07.724Z,37.50
2019-04-29T13:59:49.399Z,37.80
2019-04-29T14:02:22.227Z,40.33
2019-04-29T14:05:00.234Z,36.80
2019-04-29T14:07:31.800Z,43.30
2019-04-29T14:10:01.587Z,41.30
2019-04-29T14:12:48.765Z,37.83
2019-04-29T14:15:02.773Z,40.27
2019-04-29T14:17:35.629Z,41.50
2019-04-29T14:20:05.977Z,37.97
2019-04-29T14:22:35.831Z,34.23
2019-04-29T14:25:05.950Z,35.30
2019-04-29T14:27:35.723Z,36.00
2019-04-29T14:30:12.488Z,29.33
2019-04-29T14:32:46.100Z,31.27
2019-04-29T14:35:18.135Z,33.33
2019-04-29T14:37:54.936Z,47.20
2019-04-29T14:40:19.287Z,53.10
2019-04-29T14:42:58.017Z,56.23
2019-04-29T14:45:35.638Z,46.17
2019-04-29T14:48:16.217Z,40.17
2019-04-29T14:50:49.542Z,34.43
2019-04-29T14:53:19.514Z,38.50
2019-04-29T14:55:50.290Z,42.27
2019-04-29T14:58:20.059Z,43.10
2019-04-29T15:00:51.397Z,32.60
2019-04-29T15:03:25.475Z,34.00
2019-04-29T15:05:55.212Z,36.30
2019-04-29T15:08:24.991Z,37.50
2019-04-29T15:10:54.731Z,26.87
2019-04-29T15:13:25.509Z,24.67
2019-04-29T15:16:04.241Z,26.63
2019-04-29T15:18:45.862Z,25.30
2019-04-29T15:21:06.141Z,22.50
2019-04-29T15:23:34.177Z,27.97
2019-04-29T15:26:03.965Z,25.83
2019-04-29T15:28:35.283Z,42.40
2019-04-29T15:31:08.069Z,36.57
2019-04-29T15:33:36.449Z,41.47
2019-04-29T15:36:06.237Z,37.07
2019-04-29T15:38:36.126Z,39.20
2019-04-29T15:41:06.078Z,41.07
2019-04-29T15:43:47.219Z,39.10
2019-04-29T15:46:11.290Z,35.43
2019-04-29T15:48:39.154Z,60.87
2019-04-29T15:51:09.296Z,42.00
2019-04-29T15:53:40.687Z,39.27
2019-04-29T15:58:42.165Z,41.27
2019-04-29T16:01:17.485Z,32.37
2019-04-29T16:03:43.734Z,36.40
2019-04-29T16:06:21.037Z,29.70
2019-04-29T16:08:58.722Z,32.37
2019-04-29T16:11:43.147Z,29.03
2019-04-29T16:14:14.509Z,45.07
2019-04-29T16:16:44.249Z,36.57
2019-04-29T16:19:13.984Z,31.03
2019-04-29T16:21:43.743Z,31.03
2019-04-29T16:24:26.403Z,36.87
2019-04-29T16:26:45.675Z,38.73
2019-04-29T16:29:16.414Z,35.70
2019-04-29T16:31:46.261Z,60.17
2019-04-29T16:34:16.007Z,42.73
2019-04-29T16:36:49.803Z,59.43
2019-04-29T16:39:17.474Z,78.77
2019-04-29T16:41:58.243Z,57.47
2019-04-29T16:44:35.422Z,49.93
2019-04-29T16:46:57.555Z,48.57
2019-04-29T16:49:27.325Z,43.83
2019-04-29T16:51:57.060Z,47.50
2019-04-29T16:54:28.522Z,46.00
2019-04-29T16:56:58.450Z,50.07
2019-04-29T16:59:28.221Z,45.37
2019-04-29T17:01:57.980Z,39.67
2019-04-29T17:04:28.083Z,41.10
2019-04-29T17:07:11.739Z,40.23
2019-04-29T17:09:36.393Z,34.67
2019-04-29T17:12:06.661Z,46.77
2019-04-29T17:15:01.041Z,45.77
2019-04-29T17:17:09.643Z,31.73
2019-04-29T17:19:39.675Z,48.63
2019-04-29T17:22:24.983Z,50.27
2019-04-29T17:24:41.135Z,39.47
2019-04-29T17:27:15.092Z,37.63
2019-04-29T17:35:14.928Z,35.37
2019-04-29T17:35:17.459Z,35.63
2019-04-29T17:35:18.002Z,35.90
2019-04-29T17:35:21.676Z,37.33
2019-04-29T17:37:48.963Z,42.77
2019-04-29T17:40:19.703Z,45.53
2019-04-29T17:42:51.032Z,59.07
2019-04-29T17:45:37.777Z,60.00
2019-04-29T17:48:18.340Z,64.13
2019-04-29T17:50:48.070Z,76.33
2019-04-29T17:53:19.703Z,69.50
2019-04-29T17:55:55.614Z,71.93
2019-04-29T17:58:26.962Z,79.63
2019-04-29T18:00:59.617Z,81.27
2019-04-29T18:03:47.325Z,97.43
2019-04-29T18:06:24.225Z,101.03
2019-04-29T18:08:52.439Z,104.60
2019-04-29T18:11:22.536Z,83.93
2019-04-29T18:13:56.895Z,76.43
2019-04-29T18:16:28.326Z,76.87
2019-04-29T18:19:03.295Z,69.40
2019-04-29T18:21:43.152Z,63.20
2019-04-29T18:24:10.187Z,65.57
2019-04-29T18:26:59.286Z,63.50
2019-04-29T18:29:29.053Z,65.27
2019-04-29T18:32:00.619Z,63.27
2019-04-29T18:34:33.685Z,65.13
2019-04-29T18:37:06.273Z,62.50
2019-04-29T18:39:35.548Z,63.20
2019-04-29T18:42:06.828Z,60.13
2019-04-29T18:44:40.493Z,80.90
2019-04-29T18:47:19.494Z,87.20
2019-04-29T18:49:39.541Z,85.73
2019-04-29T18:52:11.437Z,73.67
2019-04-29T18:54:40.888Z,92.70
2019-04-29T18:57:10.884Z,54.57
2019-04-29T18:59:42.088Z,66.73
2019-04-29T19:02:12.038Z,58.47
2019-04-29T19:05:09.002Z,62.93
2019-04-29T19:07:40.162Z,65.13
2019-04-29T19:10:14.319Z,71.23
2019-04-29T19:12:41.923Z,69.57
2019-04-29T19:15:12.868Z,63.43
2019-04-29T19:17:45.424Z,68.97
2019-04-29T19:20:16.699Z,67.20
2019-04-29T19:22:47.342Z,67.30
2019-04-29T19:25:17.220Z,64.80
2019-04-29T19:27:47.377Z,60.33
2019-04-29T19:30:21.091Z,49.03
2019-04-29T19:32:49.421Z,51.90
2019-04-29T19:35:19.174Z,63.40
2019-04-29T19:37:48.923Z,73.07
2019-04-29T19:40:18.891Z,83.17
2019-04-29T19:42:49.052Z,79.83
2019-04-29T19:45:18.852Z,68.13
2019-04-29T19:47:53.018Z,78.27
2019-04-29T19:50:20.020Z,81.20
2019-04-29T19:52:49.851Z,66.57
2019-04-29T19:55:19.611Z,77.00
2019-04-29T19:57:52.252Z,80.80
2019-04-29T20:00:28.375Z,96.60
2019-04-29T20:02:54.190Z,93.13
2019-04-29T20:05:31.720Z,67.20
2019-04-29T20:07:59.062Z,72.73
2019-04-29T20:10:30.376Z,106.63
2019-04-29T20:13:01.852Z,87.40
2019-04-29T20:15:35.261Z,81.30
2019-04-29T20:18:09.476Z,82.60
2019-04-29T20:20:44.373Z,83.33
2019-04-29T20:23:19.980Z,85.53
2019-04-29T20:25:48.472Z,86.70
2019-04-29T20:28:21.516Z,82.90
2019-04-29T20:30:57.039Z,94.67
2019-04-29T20:33:23.017Z,94.97
2019-04-29T20:35:52.978Z,95.80
2019-04-29T20:38:22.935Z,102.43
2019-04-29T20:40:52.927Z,87.37
2019-04-29T20:43:25.966Z,93.80
2019-04-29T20:45:57.914Z,92.53
2019-04-29T20:48:25.557Z,90.37
2019-04-29T20:50:56.636Z,83.13
2019-04-29T20:53:30.862Z,87.80
2019-04-29T20:56:09.441Z,84.70
2019-04-29T20:58:33.197Z,89.27
2019-04-29T21:01:10.334Z,78.33
2019-04-29T21:03:36.215Z,82.57
2019-04-29T21:06:06.317Z,81.47
2019-04-29T21:08:36.217Z,79.50
2019-04-29T21:11:07.578Z,83.57
2019-04-29T21:13:48.901Z,85.70
2019-04-29T21:16:22.820Z,85.07
2019-04-29T21:18:52.877Z,86.83
2019-04-29T21:21:23.133Z,88.30
2019-04-29T21:23:55.000Z,87.53
2019-04-29T21:26:26.106Z,98.17
2019-04-29T21:28:56.552Z,91.80
2019-04-29T21:31:26.296Z,83.00
2019-04-29T21:33:58.953Z,84.70
2019-04-29T21:36:47.384Z,83.40
2019-04-29T21:39:36.414Z,80.40
2019-04-29T21:42:19.108Z,77.90
2019-04-29T21:44:48.874Z,88.03
2019-04-29T21:47:19.322Z,81.33
2019-04-29T21:49:49.798Z,76.47
2019-04-29T21:52:23.990Z,80.17
2019-04-29T21:54:51.988Z,84.80
2019-04-29T21:57:23.727Z,78.23
2019-04-29T21:59:53.157Z,74.40
2019-04-29T22:02:23.182Z,69.50
2019-04-29T22:04:55.060Z,66.87
2019-04-29T22:07:25.849Z,67.17
2019-04-29T22:09:55.744Z,58.53
2019-04-29T22:12:25.439Z,63.13
2019-04-29T22:14:56.448Z,64.67
2019-04-29T22:17:32.979Z,62.27
2019-04-29T22:20:04.226Z,75.23
2019-04-29T22:22:30.655Z,68.07
2019-04-29T22:25:05.958Z,68.13
2019-04-29T22:27:34.073Z,61.53
2019-04-29T22:30:10.229Z,70.57
2019-04-29T22:32:38.845Z,70.13
2019-04-29T22:35:09.291Z,69.03
2019-04-29T22:37:40.087Z,72.60
2019-04-29T22:40:10.436Z,59.70
2019-04-29T22:43:05.026Z,57.93
2019-04-29T22:45:33.907Z,53.67
2019-04-29T22:48:14.180Z,50.63
2019-04-29T22:50:33.652Z,52.60
2019-04-29T22:53:08.721Z,46.93
2019-04-29T22:55:39.124Z,49.30
2019-04-29T22:58:10.220Z,44.97
2019-04-29T23:00:40.292Z,44.83
2019-04-29T23:03:10.043Z,42.30
2019-04-29T23:05:39.811Z,33.00
2019-04-29T23:08:09.571Z,28.93
2019-04-29T23:10:39.407Z,30.03
2019-04-29T23:13:09.163Z,28.43
2019-04-29T23:15:38.929Z,27.13
2019-04-29T23:18:08.892Z,30.97
2019-04-29T23:20:50.148Z,27.97
2019-04-29T23:23:33.741Z,28.00
2019-04-29T23:25:59.850Z,26.70
2019-04-29T23:28:30.134Z,24.47
2019-04-29T23:30:59.897Z,22.27
2019-04-29T23:33:29.636Z,26.97
2019-04-29T23:35:59.391Z,20.00
2019-04-29T23:38:29.504Z,25.23
2019-04-29T23:40:59.237Z,19.17
2019-04-29T23:43:28.978Z,20.03
2019-04-29T23:46:00.583Z,26.67
2019-04-29T23:48:38.655Z,24.83
2019-04-29T23:51:02.859Z,27.47
2019-04-29T23:53:32.626Z,23.70
2019-04-29T23:56:05.705Z,28.40
2019-04-29T23:58:41.209Z,28.03
